createdAt,value
2023-05-31T00:02:09.161Z,5.57
2023-05-31T00:04:36.679Z,5.82
2023-05-31T00:07:05.856Z,4.32
2023-05-31T00:12:01.364Z,9.98
2023-05-31T00:14:29.040Z,8.20
2023-05-31T00:19:26.880Z,8.85
2023-05-31T00:21:54.390Z,15.02
2023-05-31T00:24:22.067Z,16.98
2023-05-31T00:26:49.596Z,12.25
2023-05-31T00:29:16.951Z,10.73
2023-05-31T00:31:44.859Z,12.50
2023-05-31T00:34:12.604Z,9.75
2023-05-31T00:36:41.507Z,7.22
2023-05-31T00:39:09.152Z,7.30
2023-05-31T00:41:36.739Z,7.65
2023-05-31T00:44:04.344Z,7.30
2023-05-31T00:46:38.687Z,6.53
2023-05-31T00:49:06.661Z,6.82
2023-05-31T00:51:35.784Z,5.95
2023-05-31T00:56:31.213Z,6.22
2023-05-31T00:59:00.694Z,6.65
2023-05-31T01:01:33.307Z,4.95
2023-05-31T01:04:02.221Z,5.22
2023-05-31T01:06:32.609Z,6.40
2023-05-31T01:09:06.325Z,4.85
2023-05-31T01:12:13.872Z,4.75
2023-05-31T01:15:18.682Z,4.93
2023-05-31T01:18:04.543Z,3.67
2023-05-31T01:20:34.175Z,4.10
2023-05-31T01:23:21.797Z,5.32
2023-05-31T01:26:29.728Z,4.45
2023-05-31T01:29:08.622Z,4.35
2023-05-31T01:31:37.788Z,5.10
2023-05-31T01:36:33.230Z,3.70
2023-05-31T01:39:02.526Z,4.90
2023-05-31T01:41:40.094Z,4.00
2023-05-31T01:44:09.151Z,5.32
2023-05-31T01:46:36.874Z,4.63
2023-05-31T01:49:04.477Z,4.35
2023-05-31T01:51:33.519Z,4.22
2023-05-31T01:54:01.156Z,4.82
2023-05-31T01:56:31.686Z,3.78
2023-05-31T01:59:00.590Z,4.57
2023-05-31T02:01:28.942Z,4.05
2023-05-31T02:03:58.668Z,4.95
2023-05-31T02:06:30.585Z,3.97
2023-05-31T02:08:58.270Z,4.13
2023-05-31T02:11:28.456Z,5.88
2023-05-31T02:16:25.215Z,4.35
2023-05-31T02:18:52.667Z,4.18
2023-05-31T02:21:23.756Z,5.53
2023-05-31T02:23:51.350Z,5.00
2023-05-31T02:26:19.754Z,5.75
2023-05-31T02:28:47.147Z,5.55
2023-05-31T02:31:15.216Z,6.47
2023-05-31T02:33:42.904Z,5.47
2023-05-31T02:36:11.811Z,5.60
2023-05-31T02:38:39.909Z,7.15
2023-05-31T02:41:07.437Z,7.88
2023-05-31T02:43:35.272Z,9.70
2023-05-31T02:46:02.961Z,13.25
2023-05-31T02:48:31.855Z,13.02
2023-05-31T02:51:00.866Z,20.88
2023-05-31T02:53:51.789Z,14.85
2023-05-31T02:56:24.099Z,12.48
2023-05-31T02:58:57.526Z,7.75
2023-05-31T03:01:34.884Z,8.32
2023-05-31T03:04:22.666Z,9.88
2023-05-31T03:06:52.858Z,17.35
2023-05-31T03:09:20.474Z,13.03
2023-05-31T03:11:48.437Z,16.90
2023-05-31T03:14:15.954Z,13.10
2023-05-31T03:16:47.699Z,15.00
2023-05-31T03:19:15.644Z,9.60
2023-05-31T03:21:45.693Z,9.93
2023-05-31T03:24:13.851Z,9.95
2023-05-31T03:26:41.434Z,9.32
2023-05-31T03:29:09.056Z,8.18
2023-05-31T03:31:37.161Z,7.20
2023-05-31T03:34:04.769Z,5.47
2023-05-31T03:36:32.876Z,5.20
2023-05-31T03:39:06.513Z,5.90
2023-05-31T03:41:33.964Z,5.72
2023-05-31T03:44:01.813Z,5.65
2023-05-31T03:46:29.449Z,6.60
2023-05-31T03:48:58.687Z,5.40
2023-05-31T03:51:27.032Z,4.40
2023-05-31T03:53:55.073Z,6.30
2023-05-31T03:56:22.578Z,4.53
2023-05-31T03:58:50.324Z,4.15
2023-05-31T04:01:19.627Z,4.65
2023-05-31T04:03:47.939Z,5.50
2023-05-31T04:06:15.984Z,4.60
2023-05-31T04:08:43.493Z,6.15
2023-05-31T04:11:11.049Z,3.97
2023-05-31T04:13:38.475Z,4.80
2023-05-31T04:16:06.777Z,4.82
2023-05-31T04:18:34.671Z,5.13
2023-05-31T04:21:02.497Z,4.05
2023-05-31T04:23:30.939Z,4.80
2023-05-31T04:26:03.091Z,4.72
2023-05-31T04:28:32.146Z,4.07
2023-05-31T04:31:01.363Z,4.55
2023-05-31T04:33:31.064Z,4.95
2023-05-31T04:36:01.324Z,5.90
2023-05-31T04:38:30.756Z,4.50
2023-05-31T04:41:01.073Z,5.00
2023-05-31T04:43:29.191Z,4.03
2023-05-31T04:46:00.902Z,5.63
2023-05-31T04:48:29.581Z,5.15
2023-05-31T04:50:59.850Z,3.85
2023-05-31T04:53:27.570Z,5.00
2023-05-31T04:55:55.257Z,3.75
2023-05-31T04:58:23.074Z,4.10
2023-05-31T05:00:50.680Z,3.50
2023-05-31T05:03:23.899Z,4.40
2023-05-31T05:05:52.563Z,5.03
2023-05-31T05:08:20.343Z,4.35
2023-05-31T05:10:49.540Z,3.90
2023-05-31T05:13:17.122Z,4.32
2023-05-31T05:15:47.593Z,4.10
2023-05-31T05:18:15.347Z,3.33
2023-05-31T05:20:44.485Z,3.47
2023-05-31T05:23:12.313Z,3.30
2023-05-31T05:25:40.472Z,4.00
2023-05-31T05:28:08.062Z,3.38
2023-05-31T05:30:36.342Z,3.95
2023-05-31T05:33:05.086Z,3.92
2023-05-31T05:35:34.291Z,3.30
2023-05-31T05:38:01.987Z,3.60
2023-05-31T05:40:29.434Z,4.17
2023-05-31T05:42:56.881Z,6.50
2023-05-31T05:45:25.178Z,5.82
2023-05-31T05:47:55.992Z,8.98
2023-05-31T05:50:23.590Z,8.32
2023-05-31T05:52:51.350Z,9.55
2023-05-31T05:57:48.407Z,14.77
2023-05-31T06:00:39.870Z,11.20
2023-05-31T06:03:08.762Z,11.70
2023-05-31T06:05:36.809Z,12.10
2023-05-31T06:08:07.609Z,12.57
2023-05-31T06:10:35.260Z,12.98
2023-05-31T06:13:03.518Z,11.32
2023-05-31T06:15:31.177Z,10.55
2023-05-31T06:17:59.003Z,8.82
2023-05-31T06:20:27.404Z,10.30
2023-05-31T06:22:57.299Z,14.13
2023-05-31T06:25:25.477Z,17.50
2023-05-31T06:27:53.409Z,14.90
2023-05-31T06:30:22.443Z,25.02
2023-05-31T06:32:51.812Z,17.55
2023-05-31T06:35:25.041Z,17.63
2023-05-31T06:37:53.362Z,15.82
2023-05-31T06:40:22.817Z,16.42
2023-05-31T06:42:50.384Z,14.57
2023-05-31T06:45:42.031Z,12.82
2023-05-31T06:48:32.257Z,12.80
2023-05-31T06:51:25.990Z,19.63
2023-05-31T06:54:13.438Z,16.38
2023-05-31T06:56:41.096Z,16.67
2023-05-31T06:59:08.710Z,19.05
2023-05-31T07:01:36.421Z,18.58
2023-05-31T07:04:04.045Z,20.08
2023-05-31T07:06:32.385Z,23.52
2023-05-31T07:08:59.941Z,22.30
2023-05-31T07:11:41.663Z,21.95
2023-05-31T07:14:09.969Z,20.95
2023-05-31T07:16:37.801Z,21.77
2023-05-31T07:19:05.360Z,21.27
2023-05-31T07:21:33.089Z,16.50
2023-05-31T07:24:00.550Z,18.23
2023-05-31T07:26:28.808Z,15.23
2023-05-31T07:28:56.202Z,13.80
2023-05-31T07:31:24.068Z,12.00
2023-05-31T07:33:51.730Z,7.90
2023-05-31T07:36:19.273Z,8.10
2023-05-31T07:38:46.800Z,5.05
2023-05-31T07:41:15.955Z,6.17
2023-05-31T07:43:46.116Z,5.45
2023-05-31T07:46:13.781Z,4.65
2023-05-31T07:48:41.319Z,5.88
2023-05-31T07:51:08.801Z,5.30
2023-05-31T07:53:36.458Z,4.88
2023-05-31T07:56:04.342Z,4.53
2023-05-31T07:58:32.048Z,5.18
2023-05-31T08:01:00.314Z,4.73
2023-05-31T08:03:27.885Z,4.00
2023-05-31T08:05:56.375Z,5.60
2023-05-31T08:08:25.605Z,3.58
2023-05-31T08:10:53.183Z,5.72
2023-05-31T08:13:20.789Z,4.05
2023-05-31T08:15:48.302Z,4.20
2023-05-31T08:18:15.737Z,4.70
2023-05-31T08:20:43.288Z,4.77
2023-05-31T08:23:21.846Z,4.70
2023-05-31T08:25:51.558Z,4.85
2023-05-31T08:28:19.034Z,4.25
2023-05-31T08:30:46.817Z,4.10
2023-05-31T08:33:14.368Z,4.25
2023-05-31T08:35:42.167Z,4.38
2023-05-31T08:38:10.155Z,3.97
2023-05-31T08:40:38.811Z,4.78
2023-05-31T08:45:44.290Z,4.47
2023-05-31T08:48:43.108Z,4.05
2023-05-31T08:51:10.794Z,3.78
2023-05-31T08:53:39.146Z,3.47
2023-05-31T08:56:08.951Z,3.88
2023-05-31T08:58:37.880Z,3.35
2023-05-31T09:01:06.824Z,4.10
2023-05-31T09:03:36.470Z,5.97
2023-05-31T09:06:04.279Z,4.55
2023-05-31T09:08:33.985Z,3.13
2023-05-31T09:11:06.551Z,3.63
2023-05-31T09:13:34.076Z,3.03
2023-05-31T09:16:02.578Z,3.30
2023-05-31T09:18:39.364Z,3.67
2023-05-31T09:21:15.095Z,3.65
2023-05-31T09:24:01.894Z,3.30
2023-05-31T09:26:29.599Z,3.10
2023-05-31T09:28:57.188Z,3.55
2023-05-31T09:31:25.759Z,3.03
2023-05-31T09:36:28.611Z,2.47
2023-05-31T09:39:07.834Z,2.90
2023-05-31T09:41:35.810Z,3.40
2023-05-31T09:44:08.174Z,2.88
2023-05-31T09:46:35.838Z,2.60
2023-05-31T09:49:06.623Z,2.75
2023-05-31T09:51:34.653Z,2.88
2023-05-31T09:54:10.639Z,2.85
2023-05-31T09:56:41.872Z,2.45
2023-05-31T09:59:10.994Z,3.65
2023-05-31T10:01:39.250Z,2.60
2023-05-31T10:04:07.326Z,3.08
2023-05-31T10:06:36.634Z,2.75
2023-05-31T10:09:07.955Z,2.22
2023-05-31T10:11:46.954Z,3.05
2023-05-31T10:14:29.877Z,2.05
2023-05-31T10:17:02.234Z,2.80
2023-05-31T10:19:45.848Z,1.73
2023-05-31T10:22:13.531Z,2.15
2023-05-31T10:24:50.951Z,2.00
2023-05-31T10:27:31.956Z,1.77
2023-05-31T10:30:25.672Z,2.00
2023-05-31T10:33:08.556Z,2.40
2023-05-31T10:35:36.221Z,1.92
2023-05-31T10:38:04.613Z,2.38
2023-05-31T10:40:57.554Z,2.55
2023-05-31T10:43:45.097Z,1.95
2023-05-31T10:46:22.859Z,2.53
2023-05-31T10:48:59.118Z,2.80
2023-05-31T10:51:46.913Z,2.45
2023-05-31T10:54:26.239Z,2.83
2023-05-31T10:56:55.055Z,2.33
2023-05-31T10:59:29.859Z,2.55
2023-05-31T11:02:00.901Z,2.70
2023-05-31T11:04:29.050Z,2.60
2023-05-31T11:07:20.566Z,2.60
2023-05-31T11:10:00.532Z,2.17
2023-05-31T11:12:35.038Z,2.80
2023-05-31T11:15:12.536Z,2.47
2023-05-31T11:17:54.064Z,2.70
2023-05-31T11:20:23.109Z,2.30
2023-05-31T11:23:19.410Z,2.63
2023-05-31T11:26:08.906Z,2.45
2023-05-31T11:28:57.682Z,3.03
2023-05-31T11:31:56.129Z,2.22
2023-05-31T11:34:29.592Z,2.63
2023-05-31T11:36:59.778Z,2.67
2023-05-31T11:39:27.947Z,2.55
2023-05-31T11:41:56.663Z,2.95
2023-05-31T11:44:30.811Z,2.83
2023-05-31T11:47:06.536Z,3.17
2023-05-31T11:49:34.492Z,1.88
2023-05-31T11:52:04.654Z,2.53
2023-05-31T11:54:33.927Z,2.67
2023-05-31T11:57:04.552Z,2.50
2023-05-31T11:59:33.444Z,2.65
2023-05-31T12:02:04.052Z,2.90
2023-05-31T12:04:38.666Z,2.65
2023-05-31T12:07:22.937Z,2.58
2023-05-31T12:09:51.385Z,2.70
2023-05-31T12:14:57.697Z,3.33
2023-05-31T12:17:26.185Z,2.40
2023-05-31T12:19:53.616Z,2.45
2023-05-31T12:22:21.643Z,2.37
2023-05-31T12:24:50.940Z,2.30
2023-05-31T12:27:33.086Z,2.40
2023-05-31T12:30:20.753Z,2.67
2023-05-31T12:32:48.436Z,2.58
2023-05-31T12:35:16.048Z,3.13
2023-05-31T12:37:43.983Z,2.55
2023-05-31T12:40:17.230Z,2.77
2023-05-31T12:42:44.802Z,2.30
2023-05-31T12:45:12.373Z,3.10
2023-05-31T12:47:40.102Z,2.80
2023-05-31T12:50:08.716Z,2.53
2023-05-31T12:52:41.443Z,2.65
2023-05-31T12:55:10.978Z,3.20
2023-05-31T12:57:38.648Z,2.53
2023-05-31T13:00:11.850Z,2.93
2023-05-31T13:02:41.481Z,3.25
2023-05-31T13:05:09.604Z,2.80
2023-05-31T13:07:38.699Z,3.72
2023-05-31T13:10:11.214Z,3.00
2023-05-31T13:12:40.040Z,2.80
2023-05-31T13:15:08.348Z,3.08
2023-05-31T13:17:36.043Z,3.13
2023-05-31T13:20:11.720Z,2.35
2023-05-31T13:22:41.409Z,3.50
2023-05-31T13:25:09.843Z,2.30
2023-05-31T13:30:07.158Z,3.72
2023-05-31T13:32:34.695Z,3.33
2023-05-31T13:35:02.317Z,2.80
2023-05-31T13:37:29.681Z,3.17
2023-05-31T13:39:58.072Z,2.60
2023-05-31T13:42:25.825Z,2.92
2023-05-31T13:44:53.303Z,2.67
2023-05-31T13:47:21.586Z,2.40
2023-05-31T13:49:49.148Z,2.70
2023-05-31T13:52:16.617Z,2.72
2023-05-31T13:54:44.106Z,2.97
2023-05-31T13:57:11.918Z,2.42
2023-05-31T13:59:39.537Z,3.43
2023-05-31T14:02:07.313Z,2.78
2023-05-31T14:04:34.942Z,2.45
2023-05-31T14:07:03.743Z,2.95
2023-05-31T14:11:58.933Z,2.88
2023-05-31T14:14:27.041Z,2.40
2023-05-31T14:16:54.707Z,2.28
2023-05-31T14:19:22.096Z,2.70
2023-05-31T14:21:49.497Z,4.38
2023-05-31T14:24:17.311Z,2.77
2023-05-31T14:26:44.839Z,3.47
2023-05-31T14:29:12.306Z,2.70
2023-05-31T14:31:39.861Z,3.08
2023-05-31T14:34:07.500Z,2.55
2023-05-31T14:36:37.043Z,2.95
2023-05-31T14:39:04.959Z,3.45
2023-05-31T14:41:32.997Z,3.35
2023-05-31T14:44:01.709Z,3.33
2023-05-31T14:46:29.821Z,3.67
2023-05-31T14:48:58.153Z,2.50
2023-05-31T14:51:28.695Z,2.22
2023-05-31T14:53:56.127Z,2.67
2023-05-31T14:56:23.921Z,2.85
2023-05-31T14:58:51.685Z,3.17
2023-05-31T15:01:20.233Z,2.90
2023-05-31T15:03:48.201Z,3.08
2023-05-31T15:06:15.870Z,2.25
2023-05-31T15:08:43.705Z,2.67
2023-05-31T15:11:11.403Z,3.10
2023-05-31T15:13:38.798Z,3.25
2023-05-31T15:16:06.453Z,2.87
2023-05-31T15:18:33.904Z,2.90
2023-05-31T15:21:01.728Z,3.63
2023-05-31T15:23:29.325Z,3.13
2023-05-31T15:25:56.787Z,3.22
2023-05-31T15:28:24.229Z,4.45
2023-05-31T15:30:52.059Z,2.55
2023-05-31T15:33:19.449Z,2.97
2023-05-31T15:35:46.970Z,3.10
2023-05-31T15:38:14.326Z,2.97
2023-05-31T15:40:41.883Z,2.97
2023-05-31T15:43:09.471Z,3.17
2023-05-31T15:45:37.508Z,3.10
2023-05-31T15:48:05.311Z,3.33
2023-05-31T15:50:32.680Z,3.30
2023-05-31T15:53:00.699Z,3.45
2023-05-31T15:55:29.523Z,2.97
2023-05-31T15:57:57.366Z,3.65
2023-05-31T16:00:25.011Z,2.75
2023-05-31T16:02:52.504Z,3.42
2023-05-31T16:05:20.095Z,2.60
2023-05-31T16:07:48.690Z,2.80
2023-05-31T16:10:16.447Z,3.30
2023-05-31T16:12:44.294Z,3.40
2023-05-31T16:15:11.976Z,2.80
2023-05-31T16:17:39.957Z,2.78
2023-05-31T16:20:08.076Z,2.83
2023-05-31T16:22:35.742Z,2.80
2023-05-31T16:25:03.721Z,2.85
2023-05-31T16:27:31.273Z,3.25
2023-05-31T16:29:58.922Z,2.90
2023-05-31T16:32:26.375Z,2.78
2023-05-31T16:34:54.123Z,2.90
2023-05-31T16:37:21.817Z,3.38
2023-05-31T16:39:49.252Z,2.88
2023-05-31T16:42:16.667Z,2.97
2023-05-31T16:44:45.561Z,2.72
2023-05-31T16:47:13.157Z,3.42
2023-05-31T16:49:40.760Z,2.97
2023-05-31T16:52:08.172Z,3.00
2023-05-31T16:54:35.584Z,3.00
2023-05-31T16:57:03.278Z,3.03
2023-05-31T16:59:30.887Z,2.77
2023-05-31T17:01:59.344Z,3.08
2023-05-31T17:04:26.937Z,2.70
2023-05-31T17:06:54.674Z,2.35
2023-05-31T17:09:22.256Z,3.20
2023-05-31T17:11:52.352Z,4.10
2023-05-31T17:14:19.888Z,3.60
2023-05-31T17:16:47.536Z,3.20
2023-05-31T17:19:15.048Z,3.40
2023-05-31T17:21:43.109Z,4.10
2023-05-31T17:24:10.634Z,3.20
2023-05-31T17:26:39.610Z,3.42
2023-05-31T17:29:06.992Z,3.13
2023-05-31T17:31:34.455Z,3.03
2023-05-31T17:34:01.973Z,3.47
2023-05-31T17:36:29.455Z,3.50
2023-05-31T17:38:57.069Z,3.10
2023-05-31T17:41:24.553Z,3.60
2023-05-31T17:43:52.111Z,3.25
2023-05-31T17:46:19.559Z,2.50
2023-05-31T17:48:47.523Z,3.38
2023-05-31T17:51:15.491Z,3.83
2023-05-31T17:53:42.985Z,3.88
2023-05-31T17:56:10.897Z,3.75
2023-05-31T17:58:38.233Z,4.03
2023-05-31T18:01:05.990Z,3.75
2023-05-31T18:03:33.538Z,3.58
2023-05-31T18:06:01.126Z,4.40
2023-05-31T18:08:28.595Z,3.95
2023-05-31T18:10:56.184Z,3.67
2023-05-31T18:13:23.709Z,3.45
2023-05-31T18:15:51.334Z,3.75
2023-05-31T18:18:19.002Z,3.55
2023-05-31T18:20:46.393Z,3.67
2023-05-31T18:23:13.855Z,4.15
2023-05-31T18:25:41.236Z,4.20
2023-05-31T18:28:08.778Z,3.88
2023-05-31T18:30:36.165Z,3.72
2023-05-31T18:33:03.998Z,3.63
2023-05-31T18:35:31.593Z,4.53
2023-05-31T18:37:59.049Z,3.45
2023-05-31T18:40:27.155Z,3.67
2023-05-31T18:42:54.750Z,3.65
2023-05-31T18:45:23.982Z,3.50
2023-05-31T18:47:53.126Z,4.78
2023-05-31T18:50:21.204Z,3.85
2023-05-31T18:52:49.385Z,3.72
2023-05-31T18:55:16.924Z,3.85
2023-05-31T18:57:44.498Z,3.80
2023-05-31T19:00:12.856Z,3.67
2023-05-31T19:02:41.209Z,3.80
2023-05-31T19:05:09.802Z,4.28
2023-05-31T19:07:37.276Z,3.90
2023-05-31T19:10:05.747Z,9.43
2023-05-31T19:12:33.155Z,6.05
2023-05-31T19:15:00.941Z,4.97
2023-05-31T19:17:28.756Z,6.38
2023-05-31T19:19:56.512Z,7.43
2023-05-31T19:22:24.024Z,7.25
2023-05-31T19:24:51.603Z,9.00
2023-05-31T19:27:19.011Z,16.35
2023-05-31T19:29:46.663Z,16.65
2023-05-31T19:32:14.237Z,16.05
2023-05-31T19:34:41.723Z,14.23
2023-05-31T19:37:10.873Z,10.70
2023-05-31T19:39:38.340Z,8.68
2023-05-31T19:42:06.377Z,6.57
2023-05-31T19:44:33.955Z,6.90
2023-05-31T19:47:02.265Z,11.57
2023-05-31T19:49:30.017Z,10.10
2023-05-31T19:51:57.410Z,10.98
2023-05-31T19:54:25.148Z,11.68
2023-05-31T19:56:52.481Z,10.48
2023-05-31T19:59:19.844Z,7.57
2023-05-31T20:01:47.496Z,6.70
2023-05-31T20:04:15.290Z,7.07
2023-05-31T20:06:42.960Z,6.75
2023-05-31T20:09:10.830Z,6.07
2023-05-31T20:11:38.316Z,7.97
2023-05-31T20:14:06.218Z,6.45
2023-05-31T20:16:33.647Z,6.53
2023-05-31T20:19:01.381Z,6.65
2023-05-31T20:21:28.900Z,6.88
2023-05-31T20:23:56.451Z,7.13
2023-05-31T20:26:24.135Z,6.32
2023-05-31T20:28:52.007Z,6.72
2023-05-31T20:31:19.561Z,6.65
2023-05-31T20:33:47.096Z,6.63
2023-05-31T20:36:14.542Z,6.30
2023-05-31T20:38:42.248Z,6.35
2023-05-31T20:41:10.438Z,10.40
2023-05-31T20:43:37.914Z,7.40
2023-05-31T20:46:06.160Z,10.30
2023-05-31T20:48:33.684Z,8.95
2023-05-31T20:51:01.139Z,10.20
2023-05-31T20:53:28.669Z,8.77
2023-05-31T20:55:56.757Z,7.47
2023-05-31T20:58:25.278Z,6.30
2023-05-31T21:00:52.908Z,7.70
2023-05-31T21:03:20.885Z,8.15
2023-05-31T21:05:48.718Z,7.53
2023-05-31T21:08:16.224Z,7.05
2023-05-31T21:10:43.737Z,7.55
2023-05-31T21:13:11.154Z,7.38
2023-05-31T21:15:38.934Z,6.85
2023-05-31T21:18:06.671Z,7.43
2023-05-31T21:20:34.120Z,7.57
2023-05-31T21:23:01.631Z,9.35
2023-05-31T21:25:29.108Z,8.38
2023-05-31T21:27:56.740Z,9.23
2023-05-31T21:30:24.480Z,8.73
2023-05-31T21:32:52.590Z,10.07
2023-05-31T21:35:20.126Z,11.37
2023-05-31T21:37:47.693Z,9.43
2023-05-31T21:40:15.207Z,9.38
2023-05-31T21:42:42.612Z,9.68
2023-05-31T21:45:10.454Z,7.32
2023-05-31T21:47:38.121Z,7.63
2023-05-31T21:50:06.705Z,7.07
2023-05-31T21:52:34.244Z,7.80
2023-05-31T21:55:01.723Z,7.05
2023-05-31T21:57:29.115Z,6.55
2023-05-31T21:59:56.575Z,6.55
2023-05-31T22:02:24.257Z,6.22
2023-05-31T22:04:53.133Z,5.85
2023-05-31T22:07:20.766Z,7.47
2023-05-31T22:09:48.304Z,5.63
2023-05-31T22:12:16.853Z,8.85
2023-05-31T22:14:45.063Z,7.70
2023-05-31T22:17:14.075Z,7.37
2023-05-31T22:22:09.897Z,6.10
2023-05-31T22:24:37.579Z,7.72
2023-05-31T22:27:06.429Z,7.57
2023-05-31T22:29:33.848Z,8.38
2023-05-31T22:32:01.858Z,8.95
2023-05-31T22:34:30.109Z,8.00
2023-05-31T22:36:57.515Z,8.32
2023-05-31T22:39:25.269Z,8.88
2023-05-31T22:41:52.831Z,8.70
2023-05-31T22:44:20.475Z,9.25
2023-05-31T22:46:47.880Z,8.55
2023-05-31T22:49:15.690Z,8.98
2023-05-31T22:51:43.180Z,9.27
2023-05-31T22:54:10.869Z,9.38
2023-05-31T22:56:38.287Z,8.45
2023-05-31T22:59:06.034Z,8.20
2023-05-31T23:01:33.586Z,9.73
2023-05-31T23:04:03.302Z,10.07
2023-05-31T23:06:32.841Z,10.00
2023-05-31T23:09:01.924Z,10.98
2023-05-31T23:14:03.203Z,9.32
2023-05-31T23:16:32.056Z,8.07
2023-05-31T23:19:00.238Z,10.02
2023-05-31T23:21:28.286Z,11.75
2023-05-31T23:23:56.086Z,9.82
2023-05-31T23:26:24.588Z,10.80
2023-05-31T23:28:51.924Z,12.20
2023-05-31T23:31:19.315Z,10.90
2023-05-31T23:33:46.929Z,8.20
2023-05-31T23:36:15.645Z,7.50
2023-05-31T23:38:43.847Z,9.32
2023-05-31T23:41:11.395Z,6.97
2023-05-31T23:43:38.767Z,7.10
2023-05-31T23:46:09.667Z,7.20
2023-05-31T23:48:37.397Z,7.63
2023-05-31T23:51:05.018Z,7.97
2023-05-31T23:53:32.474Z,6.78
2023-05-31T23:56:00.136Z,8.93
2023-05-31T23:58:27.544Z,10.45
